Time;durP1;ratioP1;P1;durP2;ratioP2;P2;SDS_P1;SDS_P2;PMS_P1;PMS_P2;Temp;Humidity;BMP_temperature;BMP_pressure;BME280_temperature;BME280_humidity;BME280_pressure;Samples;Min_cycle;Max_cycle;Signal;HPM_P1;HPM_P2
2022/01/07 00:01:53;;;;;;;22.83;11.37;;;11.70;50.00;;;;;;5114521;28;20511;-79
2022/01/07 00:04:21;;;;;;;23.63;12.70;;;11.70;50.00;;;;;;5111553;28;20528;-80
2022/01/07 00:06:49;;;;;;;27.47;11.43;;;11.60;49.60;;;;;;5113354;28;20557;-80
2022/01/07 00:09:18;;;;;;;23.57;11.40;;;11.70;49.80;;;;;;5114424;28;20446;-80
2022/01/07 00:11:45;;;;;;;25.83;11.60;;;11.60;49.70;;;;;;5113208;28;20466;-79
2022/01/07 00:14:14;;;;;;;24.63;10.77;;;11.70;49.90;;;;;;5113467;28;20440;-79
2022/01/07 00:16:41;;;;;;;37.50;12.33;;;11.60;49.20;;;;;;5114437;28;20450;-80
2022/01/07 00:19:10;;;;;;;28.03;11.40;;;11.70;49.30;;;;;;5114632;28;20524;-79
2022/01/07 00:21:38;;;;;;;32.67;12.17;;;11.60;48.80;;;;;;5114713;28;20489;-79
2022/01/07 00:24:07;;;;;;;25.83;10.23;;;11.70;49.30;;;;;;5107164;28;20456;-79
2022/01/07 00:26:35;;;;;;;27.60;11.33;;;11.60;49.60;;;;;;5114584;28;20509;-78
2022/01/07 00:29:03;;;;;;;26.43;11.33;;;11.60;48.80;;;;;;5115425;28;20581;-78
2022/01/07 00:31:31;;;;;;;26.37;11.00;;;11.60;49.80;;;;;;5113776;28;20503;-79
2022/01/07 00:33:59;;;;;;;26.93;11.37;;;11.50;48.20;;;;;;5114017;28;20520;-78
2022/01/07 00:36:28;;;;;;;27.27;11.43;;;11.30;49.80;;;;;;5116160;28;20520;-78
2022/01/07 00:38:56;;;;;;;23.93;11.60;;;11.50;50.00;;;;;;5116070;28;20527;-78
2022/01/07 00:41:23;;;;;;;25.03;12.17;;;11.50;50.00;;;;;;5106028;28;20447;-78
2022/01/07 00:43:51;;;;;;;33.63;12.10;;;11.50;49.10;;;;;;5114125;28;20424;-79
2022/01/07 00:46:20;;;;;;;24.37;11.90;;;11.60;49.20;;;;;;5112866;28;20474;-78
2022/01/07 00:48:48;;;;;;;32.37;11.60;;;11.60;49.50;;;;;;5116946;28;20475;-78
2022/01/07 00:51:16;;;;;;;21.87;10.23;;;11.60;49.90;;;;;;5116564;28;20499;-78
2022/01/07 00:53:45;;;;;;;23.20;10.10;;;11.70;49.30;;;;;;5116973;28;20474;-78
2022/01/07 00:56:14;;;;;;;24.93;11.60;;;11.70;48.70;;;;;;5114539;28;20462;-78
2022/01/07 00:58:41;;;;;;;28.93;11.50;;;11.60;49.00;;;;;;5112793;28;20530;-78
2022/01/07 01:01:09;;;;;;;28.03;11.80;;;11.60;49.30;;;;;;5096688;28;20512;-78
2022/01/07 01:03:37;;;;;;;29.90;11.80;;;11.60;48.30;;;;;;5103723;28;20447;-79
2022/01/07 01:06:05;;;;;;;24.17;11.70;;;11.50;49.20;;;;;;5112365;28;20532;-79
2022/01/07 01:08:33;;;;;;;22.30;11.00;;;11.60;49.20;;;;;;5114765;28;20440;-78
2022/01/07 01:11:04;;;;;;;26.30;12.77;;;11.60;49.20;;;;;;5113745;28;20475;-78
2022/01/07 01:13:32;;;;;;;23.60;12.03;;;11.60;48.80;;;;;;5113351;28;20527;-80
2022/01/07 01:16:00;;;;;;;32.50;12.23;;;11.50;48.40;;;;;;5109654;28;20478;-77
2022/01/07 01:18:28;;;;;;;27.60;11.93;;;11.50;48.90;;;;;;5115688;28;20458;-78
2022/01/07 01:20:56;;;;;;;25.97;11.77;;;11.60;48.60;;;;;;5114524;28;20528;-78
2022/01/07 01:23:23;;;;;;;31.00;11.70;;;11.50;48.80;;;;;;5111998;28;21139;-78
2022/01/07 01:25:51;;;;;;;25.50;11.67;;;11.50;48.90;;;;;;5114817;28;20554;-78
2022/01/07 01:28:21;;;;;;;29.03;11.70;;;11.60;49.00;;;;;;5114685;28;20475;-78
2022/01/07 01:30:48;;;;;;;24.37;11.97;;;11.70;48.70;;;;;;5116669;28;20462;-78
2022/01/07 01:33:18;;;;;;;22.47;11.50;;;11.60;49.10;;;;;;5111653;28;20444;-78
2022/01/07 01:35:46;;;;;;;29.23;11.80;;;11.60;48.10;;;;;;5113894;28;20479;-78
2022/01/07 01:38:14;;;;;;;26.90;11.13;;;11.60;48.60;;;;;;5112238;28;20450;-79
2022/01/07 01:40:42;;;;;;;26.83;10.53;;;11.60;48.40;;;;;;5115268;28;20530;-78
2022/01/07 01:43:10;;;;;;;25.13;11.10;;;11.70;47.90;;;;;;5114934;28;20519;-79
2022/01/07 01:45:39;;;;;;;22.57;10.90;;;11.60;48.00;;;;;;5114188;28;20484;-77
2022/01/07 01:48:07;;;;;;;23.80;10.97;;;11.60;48.40;;;;;;5114461;28;20436;-79
2022/01/07 01:50:35;;;;;;;24.47;10.80;;;11.60;48.10;;;;;;5114034;28;20543;-78
2022/01/07 01:53:03;;;;;;;25.60;10.40;;;11.60;48.50;;;;;;5110236;28;20590;-78
2022/01/07 01:55:31;;;;;;;27.03;10.40;;;11.60;48.40;;;;;;5105410;28;20501;-78
2022/01/07 01:57:59;;;;;;;21.50;9.23;;;11.60;48.60;;;;;;5105462;28;20443;-78
2022/01/07 02:00:27;;;;;;;22.50;10.40;;;11.60;48.20;;;;;;5108563;28;20535;-77
2022/01/07 02:02:57;;;;;;;20.03;10.40;;;11.60;48.00;;;;;;5111011;28;20428;-79
2022/01/07 02:05:26;;;;;;;22.63;10.20;;;11.60;47.80;;;;;;5107485;28;20459;-77
2022/01/07 02:08:29;;;;;;;26.23;10.07;;;11.50;47.70;;;;;;5106942;28;20430;-78
2022/01/07 02:10:58;;;;;;;23.93;9.60;;;11.40;48.10;;;;;;5110337;28;20530;-78
2022/01/07 02:13:26;;;;;;;19.50;8.73;;;11.40;48.40;;;;;;5114522;28;20584;-78
2022/01/07 02:15:53;;;;;;;20.17;8.90;;;11.50;48.30;;;;;;5113797;28;20459;-79
2022/01/07 02:18:23;;;;;;;22.20;9.70;;;11.40;48.40;;;;;;5110538;28;20511;-79
2022/01/07 02:20:52;;;;;;;18.10;9.40;;;11.50;48.80;;;;;;5107699;28;20835;-83
2022/01/07 02:26:08;;;;;;;18.10;9.10;;;11.20;48.40;;;;;;5103011;28;20570;-78
2022/01/07 02:28:36;;;;;;;22.50;9.30;;;11.00;49.00;;;;;;5105571;28;20478;-78
2022/01/07 02:31:03;;;;;;;15.73;8.90;;;11.10;49.70;;;;;;5105212;28;20519;-79
2022/01/07 02:33:31;;;;;;;17.13;8.83;;;11.20;49.10;;;;;;5100894;28;20472;-78
2022/01/07 02:36:06;;;;;;;18.53;8.07;;;11.10;49.70;;;;;;5100987;28;20570;-78
2022/01/07 02:38:34;;;;;;;16.20;8.23;;;11.00;49.70;;;;;;5104001;28;20436;-79
2022/01/07 02:41:02;;;;;;;19.10;8.10;;;11.10;50.40;;;;;;5104740;28;20531;-80
2022/01/07 02:43:30;;;;;;;14.70;7.70;;;11.10;50.00;;;;;;5103489;28;20538;-77
2022/01/07 02:45:58;;;;;;;16.23;7.57;;;11.10;50.10;;;;;;5102120;28;20462;-78
2022/01/07 02:48:26;;;;;;;19.73;8.53;;;11.00;50.80;;;;;;5101936;28;20431;-77
2022/01/07 02:50:54;;;;;;;19.53;7.80;;;10.90;50.20;;;;;;5103886;28;20522;-77
2022/01/07 02:53:23;;;;;;;15.50;7.37;;;10.90;50.30;;;;;;5107700;28;20476;-78
2022/01/07 02:55:51;;;;;;;18.97;8.03;;;11.00;51.10;;;;;;5106941;28;20527;-78
2022/01/07 02:58:19;;;;;;;15.20;7.83;;;10.90;51.20;;;;;;5106638;28;20454;-78
2022/01/07 03:00:47;;;;;;;17.53;7.63;;;11.00;50.70;;;;;;5104979;28;20453;-76
2022/01/07 03:03:16;;;;;;;11.90;6.97;;;10.80;51.60;;;;;;5105092;28;20438;-80
2022/01/07 03:05:44;;;;;;;16.30;7.27;;;10.90;51.80;;;;;;5102935;28;20458;-79
2022/01/07 03:08:12;;;;;;;19.80;8.37;;;11.00;51.70;;;;;;5102735;27;20451;-80
2022/01/07 03:10:41;;;;;;;11.93;6.90;;;10.90;51.40;;;;;;5101470;28;20464;-79
2022/01/07 03:13:09;;;;;;;15.27;6.87;;;11.00;51.60;;;;;;5102633;28;20468;-80
2022/01/07 03:15:37;;;;;;;11.57;6.87;;;11.00;51.60;;;;;;5103777;28;20463;-80
2022/01/07 03:18:06;;;;;;;18.50;7.40;;;11.10;51.70;;;;;;5102598;28;20467;-77
2022/01/07 03:20:38;;;;;;;11.87;6.70;;;11.10;51.50;;;;;;5105707;28;20436;-77
2022/01/07 03:23:07;;;;;;;12.60;7.30;;;11.10;51.40;;;;;;5105487;28;20436;-77
2022/01/07 03:25:35;;;;;;;15.80;7.47;;;11.00;51.60;;;;;;5105647;28;20458;-77
2022/01/07 03:28:05;;;;;;;12.97;7.30;;;11.00;51.60;;;;;;5106303;28;20523;-78
2022/01/07 03:30:33;;;;;;;20.03;8.07;;;11.00;51.90;;;;;;5106997;28;20503;-77
2022/01/07 03:33:01;;;;;;;12.80;7.30;;;11.00;51.50;;;;;;5106183;28;20483;-78
2022/01/07 03:35:29;;;;;;;17.80;7.37;;;11.00;51.70;;;;;;5104453;28;20570;-78
2022/01/07 03:37:57;;;;;;;16.70;6.50;;;11.00;51.80;;;;;;5105109;28;20559;-78
2022/01/07 03:40:25;;;;;;;13.87;7.70;;;11.00;51.60;;;;;;5104701;28;20439;-77
2022/01/07 03:42:53;;;;;;;18.50;7.43;;;11.10;51.50;;;;;;5104709;28;20440;-78
2022/01/07 03:45:23;;;;;;;17.23;7.77;;;11.10;51.70;;;;;;5106658;28;20464;-79
2022/01/07 03:47:51;;;;;;;11.70;6.90;;;11.00;50.60;;;;;;5111815;28;20519;-78
2022/01/07 03:50:20;;;;;;;12.73;6.97;;;11.00;51.90;;;;;;5112433;28;21002;-78
2022/01/07 03:52:48;;;;;;;17.37;7.70;;;11.00;51.40;;;;;;5112982;28;20496;-79
2022/01/07 03:55:18;;;;;;;14.07;7.50;;;10.90;51.50;;;;;;5115819;28;20543;-78
2022/01/07 03:57:46;;;;;;;13.23;7.73;;;10.80;51.80;;;;;;5113793;28;20440;-79
2022/01/07 04:00:15;;;;;;;15.40;8.07;;;10.60;52.40;;;;;;5112462;28;20436;-80
2022/01/07 04:02:45;;;;;;;12.60;7.10;;;10.50;53.50;;;;;;5112219;28;20452;-78
2022/01/07 04:05:15;;;;;;;11.07;6.87;;;10.80;54.20;;;;;;5113548;28;20452;-79
2022/01/07 04:07:42;;;;;;;12.33;6.90;;;11.10;54.30;;;;;;5111057;28;20455;-77
2022/01/07 04:10:11;;;;;;;12.33;7.20;;;11.40;54.10;;;;;;5113191;27;20454;-78
2022/01/07 04:12:38;;;;;;;12.17;7.40;;;11.50;53.70;;;;;;5113033;28;20554;-77
2022/01/07 04:15:08;;;;;;;13.07;6.60;;;11.60;53.40;;;;;;5112595;28;20502;-77
2022/01/07 04:17:36;;;;;;;9.90;6.37;;;11.70;53.50;;;;;;5115324;28;20511;-77
2022/01/07 04:20:07;;;;;;;13.97;6.80;;;11.80;52.90;;;;;;5116319;28;20446;-78
2022/01/07 04:22:35;;;;;;;15.57;6.73;;;11.90;52.70;;;;;;5114222;28;20524;-78
2022/01/07 04:25:03;;;;;;;13.77;6.37;;;12.00;52.60;;;;;;5118351;28;20527;-78
2022/01/07 04:27:31;;;;;;;11.00;6.60;;;12.00;52.30;;;;;;5118740;28;20523;-78
2022/01/07 04:29:59;;;;;;;13.67;6.80;;;12.10;52.20;;;;;;5117207;28;20539;-78
2022/01/07 04:32:27;;;;;;;8.90;6.40;;;12.10;52.10;;;;;;5118042;28;20503;-78
2022/01/07 04:34:55;;;;;;;10.87;6.47;;;12.20;52.10;;;;;;5119021;28;20524;-78
2022/01/07 04:37:24;;;;;;;9.93;6.00;;;12.20;51.90;;;;;;5118112;28;20481;-78
2022/01/07 04:39:52;;;;;;;11.93;5.83;;;12.20;51.90;;;;;;5118184;28;20515;-78
2022/01/07 04:42:20;;;;;;;11.50;6.40;;;12.20;51.80;;;;;;5114888;28;20536;-78
2022/01/07 04:44:48;;;;;;;9.80;6.13;;;12.30;51.80;;;;;;5117859;28;20444;-78
2022/01/07 04:47:16;;;;;;;7.10;5.60;;;12.30;51.60;;;;;;5118506;28;20428;-78
2022/01/07 04:49:44;;;;;;;10.77;5.87;;;12.30;51.60;;;;;;5115520;28;20527;-78
2022/01/07 04:52:11;;;;;;;9.60;5.90;;;12.30;51.50;;;;;;5118051;28;20519;-78
2022/01/07 04:54:41;;;;;;;12.90;6.53;;;12.40;51.50;;;;;;5116951;28;20502;-78
2022/01/07 04:57:09;;;;;;;10.87;6.00;;;12.40;51.50;;;;;;5118120;28;20527;-78
2022/01/07 04:59:40;;;;;;;11.77;6.53;;;12.40;51.40;;;;;;5114843;28;20444;-78
2022/01/07 05:02:08;;;;;;;12.50;6.60;;;12.40;51.40;;;;;;5099905;27;20511;-78
2022/01/07 05:04:36;;;;;;;8.67;6.10;;;12.50;51.40;;;;;;5100494;27;20452;-79
2022/01/07 05:07:04;;;;;;;9.80;6.30;;;12.40;51.40;;;;;;5103769;27;20535;-78
2022/01/07 05:09:34;;;;;;;9.90;5.57;;;12.40;51.40;;;;;;5117244;28;20439;-78
2022/01/07 05:12:04;;;;;;;8.37;5.30;;;12.50;51.50;;;;;;5117138;28;20444;-78
2022/01/07 05:14:32;;;;;;;8.70;5.60;;;12.50;51.50;;;;;;5116368;28;20547;-78
2022/01/07 05:17:00;;;;;;;8.77;5.00;;;12.50;51.40;;;;;;5114162;28;20456;-77
2022/01/07 05:19:27;;;;;;;7.13;5.30;;;12.50;51.40;;;;;;5115711;28;20438;-78
2022/01/07 05:21:55;;;;;;;8.50;5.33;;;12.50;51.50;;;;;;5117805;28;20482;-78
2022/01/07 05:24:23;;;;;;;8.37;5.30;;;12.50;51.50;;;;;;5117861;28;20474;-78
2022/01/07 05:26:51;;;;;;;8.50;5.60;;;12.50;51.50;;;;;;5105302;28;20564;-78
2022/01/07 05:29:20;;;;;;;8.10;4.73;;;12.50;51.40;;;;;;5117607;28;20555;-78
2022/01/07 05:31:49;;;;;;;10.10;5.87;;;12.60;51.60;;;;;;5117747;28;20523;-78
2022/01/07 05:34:16;;;;;;;8.73;5.57;;;12.60;51.50;;;;;;5111035;28;20559;-78
2022/01/07 05:36:45;;;;;;;8.27;5.33;;;12.60;51.50;;;;;;5113944;28;20460;-78
2022/01/07 05:39:12;;;;;;;8.23;5.50;;;12.60;51.40;;;;;;5117065;28;20431;-78
2022/01/07 05:41:40;;;;;;;9.53;5.20;;;12.60;51.40;;;;;;5116298;28;20551;-78
2022/01/07 05:44:08;;;;;;;6.57;5.10;;;12.60;51.40;;;;;;5099726;28;20471;-78
2022/01/07 05:46:38;;;;;;;9.10;5.60;;;12.70;51.40;;;;;;5097096;28;20472;-76
2022/01/07 05:49:06;;;;;;;6.63;5.50;;;12.60;51.40;;;;;;5100932;28;20447;-78
2022/01/07 05:51:34;;;;;;;8.40;5.20;;;12.60;51.20;;;;;;5111367;28;20420;-78
2022/01/07 05:54:02;;;;;;;7.17;5.07;;;12.70;51.50;;;;;;5116842;28;20499;-78
2022/01/07 05:56:31;;;;;;;6.03;4.80;;;12.70;51.30;;;;;;5116979;28;20490;-77
2022/01/07 05:58:59;;;;;;;9.80;5.43;;;12.70;51.40;;;;;;5117151;28;20466;-78
2022/01/07 06:01:27;;;;;;;5.80;5.20;;;12.70;51.40;;;;;;5116406;28;20479;-78
2022/01/07 06:03:59;;;;;;;8.10;5.90;;;12.70;51.40;;;;;;5116822;28;20451;-78
2022/01/07 06:06:27;;;;;;;8.87;5.10;;;12.70;51.40;;;;;;5108542;28;20482;-78
2022/01/07 06:08:55;;;;;;;7.47;4.90;;;12.70;52.00;;;;;;5117305;28;20493;-79
2022/01/07 06:11:22;;;;;;;6.60;4.93;;;12.70;51.40;;;;;;5113836;28;21071;-79
2022/01/07 06:13:50;;;;;;;6.00;4.63;;;12.70;51.40;;;;;;5116345;28;20482;-79
2022/01/07 06:16:18;;;;;;;7.80;5.30;;;12.70;51.40;;;;;;5104185;28;20484;-78
2022/01/07 06:18:51;;;;;;;5.97;4.80;;;12.70;51.40;;;;;;5099607;28;20814;-77
2022/01/07 06:21:21;;;;;;;6.93;5.13;;;12.70;51.50;;;;;;5105812;28;20485;-78
2022/01/07 06:23:49;;;;;;;7.90;5.17;;;12.70;51.30;;;;;;5109789;28;20465;-77
2022/01/07 06:26:17;;;;;;;6.80;5.43;;;12.80;51.30;;;;;;5093204;28;20477;-78
2022/01/07 06:28:44;;;;;;;7.87;5.30;;;12.70;51.30;;;;;;5112255;28;20438;-77
2022/01/07 06:31:13;;;;;;;9.60;5.57;;;12.70;51.20;;;;;;5113908;28;20516;-78
2022/01/07 06:33:41;;;;;;;6.63;5.10;;;12.70;51.30;;;;;;5113809;28;20965;-77
2022/01/07 06:36:09;;;;;;;6.20;5.30;;;12.70;51.30;;;;;;5114416;28;20896;-78
2022/01/07 06:38:38;;;;;;;5.03;4.53;;;12.70;51.30;;;;;;5107629;28;20490;-77
2022/01/07 06:41:06;;;;;;;7.23;4.60;;;12.70;51.30;;;;;;5113335;28;20448;-77
2022/01/07 06:43:34;;;;;;;5.43;4.90;;;12.80;52.10;;;;;;5115612;28;20456;-78
2022/01/07 06:46:02;;;;;;;6.43;4.77;;;12.70;51.30;;;;;;5099805;28;20465;-78
2022/01/07 06:48:30;;;;;;;12.63;5.77;;;12.70;51.30;;;;;;5093807;28;20440;-78
2022/01/07 06:50:58;;;;;;;7.67;5.10;;;12.70;51.40;;;;;;5093928;28;20435;-78
2022/01/07 06:53:25;;;;;;;6.63;5.00;;;12.70;51.40;;;;;;5093275;28;20472;-77
2022/01/07 06:55:57;;;;;;;13.20;4.77;;;12.70;51.40;;;;;;5103381;28;20480;-78
2022/01/07 06:58:25;;;;;;;7.07;4.87;;;12.70;51.50;;;;;;5113898;28;20428;-78
2022/01/07 07:00:53;;;;;;;6.87;5.00;;;12.70;51.50;;;;;;5114093;28;20520;-78
2022/01/07 07:03:22;;;;;;;4.93;4.53;;;12.70;51.50;;;;;;5114104;28;20436;-78
2022/01/07 07:05:50;;;;;;;5.63;5.03;;;12.70;51.50;;;;;;5113823;28;20447;-78
2022/01/07 07:08:18;;;;;;;7.67;4.70;;;12.70;51.50;;;;;;5113996;28;20435;-78
2022/01/07 07:10:46;;;;;;;6.07;5.20;;;12.70;51.60;;;;;;5113324;28;20511;-76
2022/01/07 07:13:15;;;;;;;6.03;4.80;;;12.70;51.60;;;;;;5108693;28;20530;-77
2022/01/07 07:15:43;;;;;;;7.60;4.80;;;12.80;51.60;;;;;;5113037;28;20558;-77
2022/01/07 07:18:11;;;;;;;4.90;4.50;;;12.80;51.60;;;;;;5113644;28;20530;-77
2022/01/07 07:20:39;;;;;;;5.30;4.70;;;12.80;51.70;;;;;;5107923;28;20528;-77
2022/01/07 07:23:11;;;;;;;5.97;4.87;;;12.80;51.70;;;;;;5102619;28;20636;-78
2022/01/07 07:25:39;;;;;;;5.50;5.00;;;12.80;51.60;;;;;;5113412;28;20444;-77
2022/01/07 07:28:07;;;;;;;4.73;3.90;;;12.80;51.70;;;;;;5112257;28;20531;-77
2022/01/07 07:30:40;;;;;;;5.07;4.60;;;12.80;51.60;;;;;;5108052;28;20475;-76
2022/01/07 07:38:40;;;;;;;5.27;4.80;;;12.70;51.60;;;;;;5112193;28;20532;-77
2022/01/07 07:41:08;;;;;;;8.53;5.00;;;12.70;51.80;;;;;;5116850;28;20463;-77
2022/01/07 07:43:37;;;;;;;5.10;4.70;;;12.80;51.90;;;;;;5116245;28;20519;-78
2022/01/07 07:46:06;;;;;;;8.07;4.50;;;12.80;51.80;;;;;;5113149;28;20464;-77
2022/01/07 07:48:34;;;;;;;5.83;4.80;;;12.80;51.80;;;;;;5113170;28;20432;-77
2022/01/07 07:51:02;;;;;;;6.13;4.50;;;12.80;51.90;;;;;;5116366;28;20488;-77
2022/01/07 07:53:30;;;;;;;4.67;4.27;;;12.80;51.80;;;;;;5115084;28;20880;-76
2022/01/07 07:55:58;;;;;;;6.03;4.83;;;12.80;51.80;;;;;;5115871;28;20468;-77
2022/01/07 07:58:27;;;;;;;4.40;4.00;;;12.80;51.70;;;;;;5115745;28;20432;-77
2022/01/07 08:00:55;;;;;;;5.37;4.40;;;12.80;51.70;;;;;;5108662;28;20530;-77
2022/01/07 08:03:25;;;;;;;6.47;4.33;;;12.90;51.80;;;;;;5111239;28;20432;-78
2022/01/07 08:05:53;;;;;;;4.87;4.43;;;12.90;51.90;;;;;;5114255;28;20606;-79
2022/01/07 08:08:21;;;;;;;4.30;3.90;;;12.80;51.90;;;;;;5116808;28;20459;-78
2022/01/07 08:10:51;;;;;;;7.10;4.80;;;12.90;52.00;;;;;;5115749;28;20543;-78
2022/01/07 08:13:28;;;;;;;6.00;4.83;;;12.80;51.90;;;;;;5118752;28;20440;-79
2022/01/07 08:15:58;;;;;;;4.93;4.00;;;12.90;52.00;;;;;;5118394;28;20502;-79
2022/01/07 08:18:28;;;;;;;4.97;4.57;;;12.90;52.10;;;;;;5117989;28;20473;-78
2022/01/07 08:20:56;;;;;;;5.30;3.90;;;12.90;52.00;;;;;;5116851;28;20460;-79
2022/01/07 08:23:24;;;;;;;7.03;5.13;;;12.90;52.00;;;;;;5118735;28;20448;-79
2022/01/07 08:25:52;;;;;;;5.87;4.57;;;12.90;52.10;;;;;;5119362;28;21286;-79
2022/01/07 08:28:23;;;;;;;6.43;4.10;;;12.90;52.00;;;;;;5113857;28;20872;-79
2022/01/07 08:31:14;;;;;;;10.67;4.47;;;12.90;52.00;;;;;;5116342;28;20436;-79
2022/01/07 08:36:29;;;;;;;3.90;3.60;;;12.90;52.10;;;;;;5117471;28;20533;-79
2022/01/07 08:38:57;;;;;;;3.87;3.57;;;12.90;52.20;;;;;;5105864;28;20536;-78
2022/01/07 08:41:27;;;;;;;4.77;3.93;;;12.90;52.10;;;;;;5117941;28;20460;-78
2022/01/07 08:43:55;;;;;;;4.33;3.93;;;13.00;52.20;;;;;;5117721;28;20443;-78
2022/01/07 08:46:23;;;;;;;4.93;4.17;;;13.00;52.20;;;;;;5118454;28;20444;-78
2022/01/07 08:48:53;;;;;;;3.70;3.40;;;13.00;52.20;;;;;;5113958;28;20436;-79
2022/01/07 08:51:20;;;;;;;5.27;4.20;;;13.00;52.20;;;;;;5116817;28;20436;-78
2022/01/07 08:53:51;;;;;;;3.83;3.50;;;13.00;52.20;;;;;;5115005;28;20455;-78
2022/01/07 08:56:23;;;;;;;3.90;3.50;;;13.00;52.20;;;;;;5116994;28;20475;-79
2022/01/07 08:58:51;;;;;;;5.43;4.67;;;13.00;52.20;;;;;;5116826;28;20577;-79
2022/01/07 09:01:19;;;;;;;6.63;3.87;;;13.00;52.20;;;;;;5117797;28;20436;-78
2022/01/07 09:03:47;;;;;;;4.00;3.70;;;13.10;52.40;;;;;;5118324;28;20483;-78
2022/01/07 09:06:17;;;;;;;4.40;4.00;;;13.10;52.40;;;;;;5116615;28;20908;-78
2022/01/07 09:08:46;;;;;;;3.70;3.43;;;13.10;52.30;;;;;;5118533;28;20459;-78
2022/01/07 09:11:13;;;;;;;3.83;3.40;;;13.10;52.20;;;;;;5113973;28;20460;-81
2022/01/07 09:13:41;;;;;;;4.17;3.70;;;13.10;52.20;;;;;;5117385;28;20456;-78
2022/01/07 09:16:09;;;;;;;5.67;3.70;;;13.10;52.30;;;;;;5116480;28;20554;-79
2022/01/07 09:18:37;;;;;;;4.70;4.13;;;13.10;52.20;;;;;;5117942;28;20809;-79
2022/01/07 09:21:10;;;;;;;4.27;3.87;;;13.10;52.30;;;;;;5117906;28;20446;-79
2022/01/07 09:23:41;;;;;;;3.73;3.13;;;13.10;52.30;;;;;;5116950;28;20534;-79
2022/01/07 09:26:10;;;;;;;3.90;3.60;;;13.20;52.30;;;;;;5117820;28;20882;-79
2022/01/07 09:28:37;;;;;;;5.60;3.77;;;13.20;52.30;;;;;;5111681;28;20488;-79
2022/01/07 09:31:05;;;;;;;3.30;3.10;;;13.20;52.30;;;;;;5116829;28;20420;-79
2022/01/07 09:33:33;;;;;;;3.83;3.53;;;13.20;52.40;;;;;;5117096;28;20428;-79
2022/01/07 09:36:23;;;;;;;4.20;3.80;;;13.20;52.40;;;;;;5114860;28;20469;-77
2022/01/07 09:38:53;;;;;;;4.37;3.90;;;13.30;52.40;;;;;;5117458;28;20428;-79
2022/01/07 09:41:28;;;;;;;4.13;3.73;;;13.30;52.40;;;;;;5116586;28;20454;-79
2022/01/07 09:44:01;;;;;;;5.23;3.73;;;13.30;52.30;;;;;;5108796;28;20448;-77
2022/01/07 09:46:30;;;;;;;4.73;3.90;;;13.30;52.30;;;;;;5113297;28;20923;-79
2022/01/07 09:48:58;;;;;;;3.47;3.17;;;13.30;52.40;;;;;;5114251;28;20510;-78
2022/01/07 09:51:26;;;;;;;5.10;3.70;;;13.40;52.40;;;;;;5114472;28;20459;-77
2022/01/07 09:53:55;;;;;;;3.67;3.40;;;13.40;52.50;;;;;;5108975;28;20586;-77
2022/01/07 09:56:23;;;;;;;4.93;3.37;;;13.40;52.40;;;;;;5111063;28;20583;-78
2022/01/07 09:58:51;;;;;;;3.43;3.13;;;13.40;52.60;;;;;;5113282;28;20553;-77
2022/01/07 10:01:20;;;;;;;4.00;3.67;;;13.40;52.40;;;;;;5113988;28;20482;-77
2022/01/07 10:03:48;;;;;;;5.03;3.37;;;13.50;52.50;;;;;;5112002;28;20444;-77
2022/01/07 10:06:17;;;;;;;3.73;3.23;;;13.50;52.40;;;;;;5114753;28;20520;-78
2022/01/07 10:08:46;;;;;;;3.97;3.37;;;13.50;52.40;;;;;;5113483;28;20806;-77
2022/01/07 10:11:18;;;;;;;5.30;3.70;;;13.50;52.50;;;;;;5113171;28;20530;-77
2022/01/07 10:13:47;;;;;;;4.20;3.80;;;13.50;52.50;;;;;;5111607;28;20420;-77
2022/01/07 10:16:16;;;;;;;3.97;3.40;;;13.60;52.60;;;;;;5113083;28;20518;-77
2022/01/07 10:18:52;;;;;;;4.67;3.80;;;13.50;52.50;;;;;;5112519;28;20491;-77
2022/01/07 10:21:20;;;;;;;5.20;3.80;;;13.60;52.60;;;;;;5110790;28;20543;-77
2022/01/07 10:23:48;;;;;;;4.00;3.70;;;13.60;52.60;;;;;;5113176;28;20480;-78
2022/01/07 10:26:22;;;;;;;3.63;3.30;;;13.60;52.50;;;;;;5114348;28;20448;-77
2022/01/07 10:28:51;;;;;;;4.87;3.70;;;13.60;52.60;;;;;;5114931;28;20467;-77
2022/01/07 10:31:22;;;;;;;4.20;3.73;;;13.70;52.70;;;;;;5114896;28;20450;-78
2022/01/07 10:33:52;;;;;;;3.50;3.20;;;13.70;52.70;;;;;;5109450;28;20459;-77
2022/01/07 10:36:21;;;;;;;5.73;3.90;;;13.70;52.70;;;;;;5108145;28;20509;-78
2022/01/07 10:38:51;;;;;;;3.37;3.17;;;13.70;52.60;;;;;;5110158;28;20544;-78
2022/01/07 10:41:19;;;;;;;3.60;3.30;;;13.70;52.70;;;;;;5111897;28;20874;-78
2022/01/07 10:43:48;;;;;;;4.47;3.53;;;13.70;52.70;;;;;;5114012;28;20491;-78
2022/01/07 10:46:20;;;;;;;4.47;3.90;;;13.70;52.70;;;;;;5114090;28;20460;-78
2022/01/07 10:48:51;;;;;;;3.90;3.60;;;13.70;52.80;;;;;;5114866;28;20547;-78
2022/01/07 10:51:22;;;;;;;3.80;3.37;;;13.70;52.60;;;;;;5112769;28;20475;-78
2022/01/07 10:53:52;;;;;;;5.87;3.80;;;13.80;52.80;;;;;;5110328;28;20540;-78
2022/01/07 10:56:20;;;;;;;4.53;3.83;;;13.70;52.80;;;;;;5103177;28;20588;-78
2022/01/07 10:59:01;;;;;;;5.60;4.20;;;13.70;52.70;;;;;;5111845;28;20448;-78
2022/01/07 11:01:32;;;;;;;5.37;3.47;;;13.70;53.00;;;;;;5114667;28;20499;-78
2022/01/07 11:04:01;;;;;;;6.80;4.30;;;13.70;52.80;;;;;;5113721;28;20531;-78
2022/01/07 11:06:29;;;;;;;4.10;3.70;;;13.80;53.00;;;;;;5114758;28;20548;-79
2022/01/07 11:08:59;;;;;;;4.57;4.17;;;13.80;53.00;;;;;;5113109;28;20436;-78
2022/01/07 11:11:28;;;;;;;5.10;4.10;;;13.80;53.00;;;;;;5115268;28;20523;-78
2022/01/07 11:14:01;;;;;;;5.33;4.83;;;13.80;53.00;;;;;;5114264;28;20452;-78
2022/01/07 11:16:29;;;;;;;5.60;3.93;;;13.80;53.00;;;;;;5117110;28;20503;-78
2022/01/07 11:18:57;;;;;;;8.73;5.17;;;13.80;52.90;;;;;;5118146;28;20430;-78
2022/01/07 11:21:24;;;;;;;8.53;4.90;;;13.80;53.00;;;;;;5117999;28;20431;-78
2022/01/07 11:23:52;;;;;;;11.20;4.47;;;13.80;52.90;;;;;;5118481;28;20938;-78
2022/01/07 11:26:20;;;;;;;5.30;4.47;;;13.80;53.00;;;;;;5123014;28;20484;-78
2022/01/07 11:28:59;;;;;;;8.27;4.97;;;13.90;53.10;;;;;;5122362;28;20519;-78
2022/01/07 11:31:28;;;;;;;6.70;4.40;;;13.90;53.00;;;;;;5113032;28;20528;-78
2022/01/07 11:34:26;;;;;;;6.07;4.90;;;13.90;53.00;;;;;;5116778;28;20571;-78
2022/01/07 11:37:00;;;;;;;6.00;4.37;;;14.00;53.00;;;;;;5111867;28;20471;-78
2022/01/07 11:39:28;;;;;;;5.63;4.33;;;14.00;53.00;;;;;;5117300;28;21038;-78
2022/01/07 11:41:56;;;;;;;9.57;5.00;;;14.00;53.00;;;;;;5117079;28;20516;-78
2022/01/07 11:44:26;;;;;;;6.10;4.90;;;14.10;53.10;;;;;;5116694;28;20470;-78
2022/01/07 11:47:23;;;;;;;8.13;4.63;;;14.20;53.00;;;;;;5114608;28;20953;-78
2022/01/07 11:50:02;;;;;;;8.70;4.80;;;14.20;53.00;;;;;;5116786;28;20487;-78
2022/01/07 11:52:32;;;;;;;7.90;4.53;;;14.10;52.90;;;;;;5117742;27;20471;-78
2022/01/07 11:55:27;;;;;;;6.30;4.93;;;14.20;53.00;;;;;;5103529;28;20490;-78
2022/01/07 11:57:57;;;;;;;10.60;5.53;;;14.20;52.90;;;;;;5116381;28;20475;-78
2022/01/07 12:00:50;;;;;;;5.20;4.70;;;14.20;53.00;;;;;;5107524;27;20497;-78
2022/01/07 12:03:37;;;;;;;7.40;4.70;;;14.20;53.00;;;;;;5106736;28;20486;-79
2022/01/07 12:06:44;;;;;;;7.17;4.93;;;14.10;53.10;;;;;;5116905;28;20546;-79
2022/01/07 12:09:16;;;;;;;8.93;4.90;;;14.20;53.10;;;;;;5108864;28;20453;-78
2022/01/07 12:11:45;;;;;;;5.93;5.00;;;14.10;53.10;;;;;;5113203;28;20472;-78
2022/01/07 12:14:15;;;;;;;6.63;4.50;;;14.10;53.10;;;;;;5115875;28;20508;-78
2022/01/07 12:16:44;;;;;;;7.63;4.90;;;14.10;53.10;;;;;;5117237;28;20455;-79
2022/01/07 12:20:07;;;;;;;5.50;4.97;;;14.20;53.20;;;;;;5116813;28;20462;-79
2022/01/07 12:22:34;;;;;;;6.83;5.10;;;14.20;53.10;;;;;;5111887;28;20894;-78
2022/01/07 12:25:04;;;;;;;7.90;5.20;;;14.10;53.10;;;;;;5117675;28;20460;-78
2022/01/07 12:27:31;;;;;;;8.67;4.83;;;14.10;53.10;;;;;;5116096;28;20507;-78
2022/01/07 12:30:01;;;;;;;10.77;5.40;;;14.10;53.20;;;;;;5116763;28;21009;-78
2022/01/07 12:32:31;;;;;;;9.47;4.80;;;14.20;53.30;;;;;;5115875;28;20424;-78
2022/01/07 12:35:01;;;;;;;5.40;4.83;;;14.10;53.10;;;;;;5115788;28;20525;-78
2022/01/07 12:37:30;;;;;;;5.03;4.50;;;14.20;53.30;;;;;;5115663;28;20506;-79
2022/01/07 12:39:59;;;;;;;4.70;3.90;;;14.20;53.30;;;;;;5115888;28;20523;-78
2022/01/07 12:42:27;;;;;;;7.53;4.47;;;14.20;53.30;;;;;;5116403;28;20530;-78
2022/01/07 12:44:57;;;;;;;6.37;4.57;;;14.20;53.30;;;;;;5113261;28;20460;-78
2022/01/07 12:47:26;;;;;;;5.53;4.30;;;14.20;53.40;;;;;;5117089;28;20412;-78
2022/01/07 12:49:55;;;;;;;7.07;5.07;;;14.30;53.60;;;;;;5115579;28;20514;-78
2022/01/07 12:52:25;;;;;;;4.63;4.23;;;14.40;53.60;;;;;;5116662;28;20542;-78
2022/01/07 12:54:59;;;;;;;6.87;4.33;;;14.70;53.80;;;;;;5110796;28;20499;-78
2022/01/07 12:57:29;;;;;;;5.33;4.23;;;15.00;54.00;;;;;;5114675;28;20549;-78
2022/01/07 13:00:05;;;;;;;4.20;3.80;;;15.40;53.80;;;;;;5114105;28;20440;-78
2022/01/07 13:02:33;;;;;;;6.10;3.87;;;15.90;53.40;;;;;;5114936;28;20511;-78
2022/01/07 13:05:21;;;;;;;6.20;4.03;;;16.10;52.90;;;;;;5114290;28;20470;-81